sensor_id;sensor_type;location;lat;lon;timestamp;P1;durP1;ratioP1;P2;durP2;ratioP2
49296;SDS011;35163;48.878;18.040;2023-05-07T00:01:43;16.55;;;10.98;;
49296;SDS011;35163;48.878;18.040;2023-05-07T00:04:10;19.48;;;10.52;;
49296;SDS011;35163;48.878;18.040;2023-05-07T00:06:37;17.30;;;10.15;;
49296;SDS011;35163;48.878;18.040;2023-05-07T00:09:04;24.10;;;10.45;;
49296;SDS011;35163;48.878;18.040;2023-05-07T00:11:30;19.65;;;11.05;;
49296;SDS011;35163;48.878;18.040;2023-05-07T00:13:57;18.15;;;10.57;;
49296;SDS011;35163;48.878;18.040;2023-05-07T00:16:24;19.05;;;10.48;;
49296;SDS011;35163;48.878;18.040;2023-05-07T00:18:52;18.55;;;10.10;;
49296;SDS011;35163;48.878;18.040;2023-05-07T00:21:19;18.10;;;10.30;;
49296;SDS011;35163;48.878;18.040;2023-05-07T00:23:45;16.65;;;9.85;;
49296;SDS011;35163;48.878;18.040;2023-05-07T00:26:12;16.50;;;10.13;;
49296;SDS011;35163;48.878;18.040;2023-05-07T00:28:39;18.83;;;10.10;;
49296;SDS011;35163;48.878;18.040;2023-05-07T00:31:05;17.27;;;10.27;;
49296;SDS011;35163;48.878;18.040;2023-05-07T00:33:32;16.67;;;10.48;;
49296;SDS011;35163;48.878;18.040;2023-05-07T00:35:58;19.77;;;10.02;;
49296;SDS011;35163;48.878;18.040;2023-05-07T00:38:27;18.67;;;10.52;;
49296;SDS011;35163;48.878;18.040;2023-05-07T00:40:53;21.05;;;11.90;;
49296;SDS011;35163;48.878;18.040;2023-05-07T00:43:20;19.88;;;12.07;;
49296;SDS011;35163;48.878;18.040;2023-05-07T00:45:47;18.92;;;11.65;;
49296;SDS011;35163;48.878;18.040;2023-05-07T00:48:13;28.48;;;11.93;;
49296;SDS011;35163;48.878;18.040;2023-05-07T00:50:40;18.98;;;11.52;;
49296;SDS011;35163;48.878;18.040;2023-05-07T00:53:07;20.65;;;12.55;;
49296;SDS011;35163;48.878;18.040;2023-05-07T00:55:35;18.60;;;11.63;;
49296;SDS011;35163;48.878;18.040;2023-05-07T00:58:02;22.52;;;12.85;;
49296;SDS011;35163;48.878;18.040;2023-05-07T01:00:29;18.45;;;10.90;;
49296;SDS011;35163;48.878;18.040;2023-05-07T01:02:56;24.17;;;12.48;;
49296;SDS011;35163;48.878;18.040;2023-05-07T01:05:24;21.35;;;13.07;;
49296;SDS011;35163;48.878;18.040;2023-05-07T01:07:53;20.58;;;13.07;;
49296;SDS011;35163;48.878;18.040;2023-05-07T01:10:21;21.98;;;13.60;;
49296;SDS011;35163;48.878;18.040;2023-05-07T01:12:48;19.73;;;13.40;;
49296;SDS011;35163;48.878;18.040;2023-05-07T01:15:16;21.80;;;13.02;;
49296;SDS011;35163;48.878;18.040;2023-05-07T01:17:43;24.05;;;14.13;;
49296;SDS011;35163;48.878;18.040;2023-05-07T01:20:11;22.98;;;14.07;;
49296;SDS011;35163;48.878;18.040;2023-05-07T01:22:39;22.08;;;14.43;;
49296;SDS011;35163;48.878;18.040;2023-05-07T01:25:06;25.15;;;15.70;;
49296;SDS011;35163;48.878;18.040;2023-05-07T01:27:34;26.35;;;13.32;;
49296;SDS011;35163;48.878;18.040;2023-05-07T01:30:07;22.73;;;13.80;;
49296;SDS011;35163;48.878;18.040;2023-05-07T01:32:42;22.80;;;15.60;;
49296;SDS011;35163;48.878;18.040;2023-05-07T01:35:13;28.33;;;16.35;;
49296;SDS011;35163;48.878;18.040;2023-05-07T01:37:45;21.38;;;13.35;;
49296;SDS011;35163;48.878;18.040;2023-05-07T01:40:13;27.98;;;14.85;;
49296;SDS011;35163;48.878;18.040;2023-05-07T01:42:41;25.88;;;15.95;;
49296;SDS011;35163;48.878;18.040;2023-05-07T01:45:12;23.33;;;13.65;;
49296;SDS011;35163;48.878;18.040;2023-05-07T01:47:39;22.42;;;15.02;;
49296;SDS011;35163;48.878;18.040;2023-05-07T01:50:06;26.80;;;14.48;;
49296;SDS011;35163;48.878;18.040;2023-05-07T01:52:37;23.25;;;14.77;;
49296;SDS011;35163;48.878;18.040;2023-05-07T01:55:05;20.25;;;13.90;;
49296;SDS011;35163;48.878;18.040;2023-05-07T01:57:34;30.42;;;14.55;;
49296;SDS011;35163;48.878;18.040;2023-05-07T02:00:01;24.92;;;14.70;;
49296;SDS011;35163;48.878;18.040;2023-05-07T02:02:31;24.30;;;15.32;;
49296;SDS011;35163;48.878;18.040;2023-05-07T02:04:58;25.17;;;14.70;;
49296;SDS011;35163;48.878;18.040;2023-05-07T02:07:25;25.67;;;14.82;;
49296;SDS011;35163;48.878;18.040;2023-05-07T02:09:52;27.50;;;15.10;;
49296;SDS011;35163;48.878;18.040;2023-05-07T02:12:19;27.58;;;15.30;;
49296;SDS011;35163;48.878;18.040;2023-05-07T02:14:46;25.63;;;16.25;;
49296;SDS011;35163;48.878;18.040;2023-05-07T02:17:12;30.58;;;16.40;;
49296;SDS011;35163;48.878;18.040;2023-05-07T02:19:39;28.98;;;16.65;;
49296;SDS011;35163;48.878;18.040;2023-05-07T02:22:06;23.67;;;13.35;;
49296;SDS011;35163;48.878;18.040;2023-05-07T02:24:33;30.20;;;16.65;;
49296;SDS011;35163;48.878;18.040;2023-05-07T02:27:00;24.58;;;15.18;;
49296;SDS011;35163;48.878;18.040;2023-05-07T02:29:27;27.42;;;16.17;;
49296;SDS011;35163;48.878;18.040;2023-05-07T02:31:53;27.58;;;15.35;;
49296;SDS011;35163;48.878;18.040;2023-05-07T02:34:20;29.52;;;16.30;;
49296;SDS011;35163;48.878;18.040;2023-05-07T02:36:47;25.08;;;16.23;;
49296;SDS011;35163;48.878;18.040;2023-05-07T02:39:16;25.00;;;15.82;;
49296;SDS011;35163;48.878;18.040;2023-05-07T02:41:43;24.95;;;16.70;;
49296;SDS011;35163;48.878;18.040;2023-05-07T02:44:09;28.67;;;16.80;;
49296;SDS011;35163;48.878;18.040;2023-05-07T02:46:36;25.73;;;15.98;;
49296;SDS011;35163;48.878;18.040;2023-05-07T02:49:02;26.63;;;15.82;;
49296;SDS011;35163;48.878;18.040;2023-05-07T02:51:29;25.60;;;15.52;;
49296;SDS011;35163;48.878;18.040;2023-05-07T02:53:56;25.67;;;15.90;;
49296;SDS011;35163;48.878;18.040;2023-05-07T02:56:26;25.75;;;16.38;;
49296;SDS011;35163;48.878;18.040;2023-05-07T02:58:53;28.13;;;16.77;;
49296;SDS011;35163;48.878;18.040;2023-05-07T03:01:19;25.48;;;15.75;;
49296;SDS011;35163;48.878;18.040;2023-05-07T03:03:47;23.08;;;15.80;;
49296;SDS011;35163;48.878;18.040;2023-05-07T03:06:14;26.20;;;16.33;;
49296;SDS011;35163;48.878;18.040;2023-05-07T03:08:41;26.58;;;14.88;;
49296;SDS011;35163;48.878;18.040;2023-05-07T03:11:08;25.95;;;16.27;;
49296;SDS011;35163;48.878;18.040;2023-05-07T03:13:36;25.20;;;16.23;;
49296;SDS011;35163;48.878;18.040;2023-05-07T03:16:02;24.15;;;14.45;;
49296;SDS011;35163;48.878;18.040;2023-05-07T03:18:29;26.05;;;15.93;;
49296;SDS011;35163;48.878;18.040;2023-05-07T03:20:58;26.00;;;16.38;;
49296;SDS011;35163;48.878;18.040;2023-05-07T03:23:25;23.80;;;15.00;;
49296;SDS011;35163;48.878;18.040;2023-05-07T03:25:52;25.23;;;15.80;;
49296;SDS011;35163;48.878;18.040;2023-05-07T03:28:21;25.63;;;16.55;;
49296;SDS011;35163;48.878;18.040;2023-05-07T03:30:51;27.70;;;16.60;;
49296;SDS011;35163;48.878;18.040;2023-05-07T03:33:17;26.60;;;16.40;;
49296;SDS011;35163;48.878;18.040;2023-05-07T03:35:44;27.10;;;15.98;;
49296;SDS011;35163;48.878;18.040;2023-05-07T03:38:11;26.48;;;15.50;;
49296;SDS011;35163;48.878;18.040;2023-05-07T03:40:37;27.17;;;14.63;;
49296;SDS011;35163;48.878;18.040;2023-05-07T03:43:04;24.95;;;15.63;;
49296;SDS011;35163;48.878;18.040;2023-05-07T03:45:31;26.20;;;16.05;;
49296;SDS011;35163;48.878;18.040;2023-05-07T03:47:57;22.98;;;15.00;;
49296;SDS011;35163;48.878;18.040;2023-05-07T03:50:24;24.73;;;15.25;;
49296;SDS011;35163;48.878;18.040;2023-05-07T03:52:50;28.88;;;16.02;;
49296;SDS011;35163;48.878;18.040;2023-05-07T03:55:17;31.85;;;16.77;;
49296;SDS011;35163;48.878;18.040;2023-05-07T03:57:44;24.17;;;15.38;;
49296;SDS011;35163;48.878;18.040;2023-05-07T04:00:11;26.85;;;14.90;;
49296;SDS011;35163;48.878;18.040;2023-05-07T04:02:38;30.45;;;14.82;;
49296;SDS011;35163;48.878;18.040;2023-05-07T04:05:05;23.50;;;13.80;;
49296;SDS011;35163;48.878;18.040;2023-05-07T04:07:32;24.70;;;14.23;;
49296;SDS011;35163;48.878;18.040;2023-05-07T04:09:59;23.55;;;14.50;;
49296;SDS011;35163;48.878;18.040;2023-05-07T04:12:25;25.92;;;14.70;;
49296;SDS011;35163;48.878;18.040;2023-05-07T04:14:52;24.17;;;15.10;;
49296;SDS011;35163;48.878;18.040;2023-05-07T04:17:21;27.05;;;15.18;;
49296;SDS011;35163;48.878;18.040;2023-05-07T04:19:48;23.90;;;13.93;;
49296;SDS011;35163;48.878;18.040;2023-05-07T04:22:17;24.45;;;14.80;;
49296;SDS011;35163;48.878;18.040;2023-05-07T04:24:43;23.77;;;14.57;;
49296;SDS011;35163;48.878;18.040;2023-05-07T04:27:10;22.67;;;14.27;;
49296;SDS011;35163;48.878;18.040;2023-05-07T04:29:37;24.55;;;14.15;;
49296;SDS011;35163;48.878;18.040;2023-05-07T04:32:04;22.90;;;15.40;;
49296;SDS011;35163;48.878;18.040;2023-05-07T04:34:32;23.45;;;13.70;;
49296;SDS011;35163;48.878;18.040;2023-05-07T04:36:58;25.10;;;15.38;;
49296;SDS011;35163;48.878;18.040;2023-05-07T04:39:25;20.85;;;14.40;;
49296;SDS011;35163;48.878;18.040;2023-05-07T04:41:55;21.55;;;13.90;;
49296;SDS011;35163;48.878;18.040;2023-05-07T04:44:21;22.83;;;15.40;;
49296;SDS011;35163;48.878;18.040;2023-05-07T04:46:48;24.75;;;15.40;;
49296;SDS011;35163;48.878;18.040;2023-05-07T04:49:15;24.92;;;15.30;;
49296;SDS011;35163;48.878;18.040;2023-05-07T04:51:44;25.05;;;14.55;;
49296;SDS011;35163;48.878;18.040;2023-05-07T04:54:11;24.85;;;15.32;;
49296;SDS011;35163;48.878;18.040;2023-05-07T04:56:37;27.75;;;15.93;;
49296;SDS011;35163;48.878;18.040;2023-05-07T04:59:04;26.90;;;15.43;;
49296;SDS011;35163;48.878;18.040;2023-05-07T05:01:31;25.88;;;15.88;;
49296;SDS011;35163;48.878;18.040;2023-05-07T05:03:59;21.33;;;13.70;;
49296;SDS011;35163;48.878;18.040;2023-05-07T05:06:27;24.98;;;15.10;;
49296;SDS011;35163;48.878;18.040;2023-05-07T05:08:53;25.00;;;14.68;;
49296;SDS011;35163;48.878;18.040;2023-05-07T05:11:20;22.67;;;13.93;;
49296;SDS011;35163;48.878;18.040;2023-05-07T05:13:47;28.63;;;15.05;;
49296;SDS011;35163;48.878;18.040;2023-05-07T05:16:15;25.60;;;14.25;;
49296;SDS011;35163;48.878;18.040;2023-05-07T05:18:42;28.40;;;14.80;;
49296;SDS011;35163;48.878;18.040;2023-05-07T05:21:09;24.98;;;13.63;;
49296;SDS011;35163;48.878;18.040;2023-05-07T05:23:35;22.92;;;13.48;;
49296;SDS011;35163;48.878;18.040;2023-05-07T05:26:02;21.55;;;13.98;;
49296;SDS011;35163;48.878;18.040;2023-05-07T05:28:29;22.90;;;13.77;;
49296;SDS011;35163;48.878;18.040;2023-05-07T05:30:55;24.10;;;14.18;;
49296;SDS011;35163;48.878;18.040;2023-05-07T05:33:22;22.88;;;12.77;;
49296;SDS011;35163;48.878;18.040;2023-05-07T05:35:49;18.60;;;11.57;;
49296;SDS011;35163;48.878;18.040;2023-05-07T05:38:16;22.52;;;13.32;;
49296;SDS011;35163;48.878;18.040;2023-05-07T05:40:43;21.02;;;11.85;;
49296;SDS011;35163;48.878;18.040;2023-05-07T05:43:10;17.98;;;11.68;;
49296;SDS011;35163;48.878;18.040;2023-05-07T05:45:36;17.42;;;11.68;;
49296;SDS011;35163;48.878;18.040;2023-05-07T05:48:03;20.48;;;12.02;;
49296;SDS011;35163;48.878;18.040;2023-05-07T05:50:30;23.88;;;11.50;;
49296;SDS011;35163;48.878;18.040;2023-05-07T05:52:57;18.73;;;11.50;;
49296;SDS011;35163;48.878;18.040;2023-05-07T05:55:25;19.52;;;11.25;;
49296;SDS011;35163;48.878;18.040;2023-05-07T05:57:55;18.60;;;11.10;;
49296;SDS011;35163;48.878;18.040;2023-05-07T06:00:22;17.45;;;10.43;;
49296;SDS011;35163;48.878;18.040;2023-05-07T06:02:49;17.05;;;10.63;;
49296;SDS011;35163;48.878;18.040;2023-05-07T06:05:21;21.27;;;10.52;;
49296;SDS011;35163;48.878;18.040;2023-05-07T06:07:48;21.45;;;11.07;;
49296;SDS011;35163;48.878;18.040;2023-05-07T06:10:17;17.23;;;10.43;;
49296;SDS011;35163;48.878;18.040;2023-05-07T06:12:44;17.42;;;10.98;;
49296;SDS011;35163;48.878;18.040;2023-05-07T06:15:14;17.98;;;9.80;;
49296;SDS011;35163;48.878;18.040;2023-05-07T06:17:40;17.33;;;10.68;;
49296;SDS011;35163;48.878;18.040;2023-05-07T06:20:07;17.23;;;10.35;;
49296;SDS011;35163;48.878;18.040;2023-05-07T06:22:34;18.27;;;10.43;;
49296;SDS011;35163;48.878;18.040;2023-05-07T06:25:01;15.43;;;9.73;;
49296;SDS011;35163;48.878;18.040;2023-05-07T06:27:28;17.75;;;10.55;;
49296;SDS011;35163;48.878;18.040;2023-05-07T06:29:57;16.80;;;8.95;;
49296;SDS011;35163;48.878;18.040;2023-05-07T06:32:24;16.35;;;9.80;;
49296;SDS011;35163;48.878;18.040;2023-05-07T06:34:51;17.45;;;10.00;;
49296;SDS011;35163;48.878;18.040;2023-05-07T06:37:17;17.08;;;9.38;;
49296;SDS011;35163;48.878;18.040;2023-05-07T06:39:47;17.45;;;9.55;;
49296;SDS011;35163;48.878;18.040;2023-05-07T06:42:13;14.48;;;8.63;;
49296;SDS011;35163;48.878;18.040;2023-05-07T06:44:40;15.07;;;8.88;;
49296;SDS011;35163;48.878;18.040;2023-05-07T06:47:07;15.35;;;9.02;;
49296;SDS011;35163;48.878;18.040;2023-05-07T06:49:33;14.13;;;8.63;;
49296;SDS011;35163;48.878;18.040;2023-05-07T06:52:00;15.55;;;9.15;;
49296;SDS011;35163;48.878;18.040;2023-05-07T06:54:27;20.45;;;8.13;;
49296;SDS011;35163;48.878;18.040;2023-05-07T06:56:53;15.35;;;7.53;;
49296;SDS011;35163;48.878;18.040;2023-05-07T06:59:20;13.60;;;7.70;;
49296;SDS011;35163;48.878;18.040;2023-05-07T07:01:47;14.73;;;7.05;;
49296;SDS011;35163;48.878;18.040;2023-05-07T07:04:14;14.13;;;7.07;;
49296;SDS011;35163;48.878;18.040;2023-05-07T07:06:40;11.63;;;6.30;;
49296;SDS011;35163;48.878;18.040;2023-05-07T07:09:07;13.05;;;6.90;;
49296;SDS011;35163;48.878;18.040;2023-05-07T07:11:37;16.67;;;7.80;;
49296;SDS011;35163;48.878;18.040;2023-05-07T07:14:03;15.18;;;8.23;;
49296;SDS011;35163;48.878;18.040;2023-05-07T07:16:34;13.80;;;7.47;;
49296;SDS011;35163;48.878;18.040;2023-05-07T07:19:03;15.95;;;8.60;;
49296;SDS011;35163;48.878;18.040;2023-05-07T07:21:30;11.95;;;7.53;;
49296;SDS011;35163;48.878;18.040;2023-05-07T07:23:57;13.45;;;8.40;;
49296;SDS011;35163;48.878;18.040;2023-05-07T07:26:25;18.00;;;10.32;;
49296;SDS011;35163;48.878;18.040;2023-05-07T07:28:52;13.43;;;8.15;;
49296;SDS011;35163;48.878;18.040;2023-05-07T07:31:19;12.98;;;7.88;;
49296;SDS011;35163;48.878;18.040;2023-05-07T07:33:45;14.18;;;8.32;;
49296;SDS011;35163;48.878;18.040;2023-05-07T07:36:12;13.00;;;7.97;;
49296;SDS011;35163;48.878;18.040;2023-05-07T07:38:39;16.13;;;8.35;;
49296;SDS011;35163;48.878;18.040;2023-05-07T07:41:07;11.05;;;6.80;;
49296;SDS011;35163;48.878;18.040;2023-05-07T07:43:34;11.60;;;6.90;;
49296;SDS011;35163;48.878;18.040;2023-05-07T07:46:01;11.35;;;7.03;;
49296;SDS011;35163;48.878;18.040;2023-05-07T07:48:28;12.70;;;7.18;;
49296;SDS011;35163;48.878;18.040;2023-05-07T07:50:55;12.18;;;7.30;;
49296;SDS011;35163;48.878;18.040;2023-05-07T07:53:21;12.00;;;7.30;;
49296;SDS011;35163;48.878;18.040;2023-05-07T07:55:48;12.68;;;7.63;;
49296;SDS011;35163;48.878;18.040;2023-05-07T07:58:15;12.10;;;6.40;;
49296;SDS011;35163;48.878;18.040;2023-05-07T08:00:42;11.23;;;6.25;;
49296;SDS011;35163;48.878;18.040;2023-05-07T08:03:09;12.07;;;6.53;;
49296;SDS011;35163;48.878;18.040;2023-05-07T08:05:37;14.70;;;6.88;;
49296;SDS011;35163;48.878;18.040;2023-05-07T08:08:04;11.43;;;6.43;;
49296;SDS011;35163;48.878;18.040;2023-05-07T08:10:34;12.85;;;6.80;;
49296;SDS011;35163;48.878;18.040;2023-05-07T08:13:04;12.27;;;6.00;;
49296;SDS011;35163;48.878;18.040;2023-05-07T08:15:31;10.30;;;6.25;;
49296;SDS011;35163;48.878;18.040;2023-05-07T08:18:01;11.35;;;6.25;;
49296;SDS011;35163;48.878;18.040;2023-05-07T08:20:28;10.90;;;6.32;;
49296;SDS011;35163;48.878;18.040;2023-05-07T08:22:55;10.73;;;5.70;;
49296;SDS011;35163;48.878;18.040;2023-05-07T08:25:25;9.80;;;5.78;;
49296;SDS011;35163;48.878;18.040;2023-05-07T08:27:52;10.95;;;5.50;;
49296;SDS011;35163;48.878;18.040;2023-05-07T08:30:18;9.77;;;5.63;;
49296;SDS011;35163;48.878;18.040;2023-05-07T08:32:48;10.18;;;5.43;;
49296;SDS011;35163;48.878;18.040;2023-05-07T08:35:14;11.00;;;5.05;;
49296;SDS011;35163;48.878;18.040;2023-05-07T08:37:41;11.60;;;5.70;;
49296;SDS011;35163;48.878;18.040;2023-05-07T08:40:08;9.32;;;5.40;;
49296;SDS011;35163;48.878;18.040;2023-05-07T08:42:38;9.07;;;5.03;;
49296;SDS011;35163;48.878;18.040;2023-05-07T08:45:08;9.70;;;5.60;;
49296;SDS011;35163;48.878;18.040;2023-05-07T08:47:42;9.80;;;5.40;;
49296;SDS011;35163;48.878;18.040;2023-05-07T08:50:13;13.30;;;6.25;;
49296;SDS011;35163;48.878;18.040;2023-05-07T08:52:40;9.35;;;4.93;;
49296;SDS011;35163;48.878;18.040;2023-05-07T08:55:09;10.88;;;5.68;;
49296;SDS011;35163;48.878;18.040;2023-05-07T08:57:36;15.32;;;8.30;;
49296;SDS011;35163;48.878;18.040;2023-05-07T09:00:06;41.13;;;21.70;;
49296;SDS011;35163;48.878;18.040;2023-05-07T09:02:39;21.25;;;10.60;;
49296;SDS011;35163;48.878;18.040;2023-05-07T09:05:07;17.38;;;8.13;;
49296;SDS011;35163;48.878;18.040;2023-05-07T09:07:35;10.57;;;6.13;;
49296;SDS011;35163;48.878;18.040;2023-05-07T09:10:05;15.30;;;5.80;;
49296;SDS011;35163;48.878;18.040;2023-05-07T09:12:39;9.85;;;4.88;;
49296;SDS011;35163;48.878;18.040;2023-05-07T09:15:06;9.48;;;4.72;;
49296;SDS011;35163;48.878;18.040;2023-05-07T09:17:34;9.60;;;4.70;;
49296;SDS011;35163;48.878;18.040;2023-05-07T09:20:04;7.95;;;4.28;;
49296;SDS011;35163;48.878;18.040;2023-05-07T09:22:36;8.98;;;4.68;;
49296;SDS011;35163;48.878;18.040;2023-05-07T09:25:05;8.65;;;4.40;;
49296;SDS011;35163;48.878;18.040;2023-05-07T09:27:33;10.75;;;4.38;;
49296;SDS011;35163;48.878;18.040;2023-05-07T09:30:02;8.30;;;4.65;;
49296;SDS011;35163;48.878;18.040;2023-05-07T09:32:30;7.25;;;3.95;;
49296;SDS011;35163;48.878;18.040;2023-05-07T09:35:01;7.85;;;4.03;;
49296;SDS011;35163;48.878;18.040;2023-05-07T09:37:30;6.10;;;3.50;;
49296;SDS011;35163;48.878;18.040;2023-05-07T09:39:57;6.97;;;3.58;;
49296;SDS011;35163;48.878;18.040;2023-05-07T09:42:27;8.23;;;3.40;;
49296;SDS011;35163;48.878;18.040;2023-05-07T09:44:54;5.45;;;2.88;;
49296;SDS011;35163;48.878;18.040;2023-05-07T09:47:23;3.35;;;2.15;;
49296;SDS011;35163;48.878;18.040;2023-05-07T09:49:54;5.35;;;2.83;;
49296;SDS011;35163;48.878;18.040;2023-05-07T09:52:25;5.25;;;2.35;;
49296;SDS011;35163;48.878;18.040;2023-05-07T09:57:33;3.65;;;1.90;;
49296;SDS011;35163;48.878;18.040;2023-05-07T10:00:01;4.78;;;2.00;;
49296;SDS011;35163;48.878;18.040;2023-05-07T10:02:30;2.97;;;1.65;;
49296;SDS011;35163;48.878;18.040;2023-05-07T10:05:00;4.10;;;2.28;;
49296;SDS011;35163;48.878;18.040;2023-05-07T10:07:28;3.63;;;2.00;;
49296;SDS011;35163;48.878;18.040;2023-05-07T10:09:58;6.28;;;2.42;;
49296;SDS011;35163;48.878;18.040;2023-05-07T10:12:25;4.65;;;2.42;;
49296;SDS011;35163;48.878;18.040;2023-05-07T10:14:53;4.47;;;2.95;;
49296;SDS011;35163;48.878;18.040;2023-05-07T10:17:24;3.53;;;2.08;;
49296;SDS011;35163;48.878;18.040;2023-05-07T10:19:55;4.78;;;2.50;;
49296;SDS011;35163;48.878;18.040;2023-05-07T10:22:21;6.45;;;2.40;;
49296;SDS011;35163;48.878;18.040;2023-05-07T10:24:49;4.50;;;2.45;;
49296;SDS011;35163;48.878;18.040;2023-05-07T10:27:23;8.40;;;2.13;;
49296;SDS011;35163;48.878;18.040;2023-05-07T10:35:19;4.32;;;2.22;;
49296;SDS011;35163;48.878;18.040;2023-05-07T10:37:51;8.13;;;3.78;;
49296;SDS011;35163;48.878;18.040;2023-05-07T10:40:20;8.48;;;3.38;;
49296;SDS011;35163;48.878;18.040;2023-05-07T10:43:21;5.93;;;2.75;;
49296;SDS011;35163;48.878;18.040;2023-05-07T10:45:40;5.03;;;2.78;;
49296;SDS011;35163;48.878;18.040;2023-05-07T10:48:08;6.07;;;2.40;;
49296;SDS011;35163;48.878;18.040;2023-05-07T10:50:45;3.28;;;2.00;;
49296;SDS011;35163;48.878;18.040;2023-05-07T10:55:47;4.25;;;2.50;;
49296;SDS011;35163;48.878;18.040;2023-05-07T11:00:57;4.60;;;1.80;;
49296;SDS011;35163;48.878;18.040;2023-05-07T11:03:28;4.57;;;2.42;;
49296;SDS011;35163;48.878;18.040;2023-05-07T11:06:13;5.32;;;2.40;;
49296;SDS011;35163;48.878;18.040;2023-05-07T11:17:08;3.70;;;2.30;;
49296;SDS011;35163;48.878;18.040;2023-05-07T11:19:51;4.03;;;2.22;;
49296;SDS011;35163;48.878;18.040;2023-05-07T11:24:59;7.18;;;3.35;;
49296;SDS011;35163;48.878;18.040;2023-05-07T11:27:26;8.50;;;3.13;;
49296;SDS011;35163;48.878;18.040;2023-05-07T11:29:53;4.25;;;2.50;;
49296;SDS011;35163;48.878;18.040;2023-05-07T11:32:23;6.28;;;2.78;;
49296;SDS011;35163;48.878;18.040;2023-05-07T11:34:58;6.05;;;2.83;;
49296;SDS011;35163;48.878;18.040;2023-05-07T11:37:30;6.05;;;2.65;;
49296;SDS011;35163;48.878;18.040;2023-05-07T11:40:06;5.10;;;2.70;;
49296;SDS011;35163;48.878;18.040;2023-05-07T11:42:34;5.43;;;2.92;;
49296;SDS011;35163;48.878;18.040;2023-05-07T11:45:06;5.63;;;2.92;;
49296;SDS011;35163;48.878;18.040;2023-05-07T11:47:38;6.35;;;3.25;;
49296;SDS011;35163;48.878;18.040;2023-05-07T11:50:08;7.43;;;3.90;;
49296;SDS011;35163;48.878;18.040;2023-05-07T11:52:38;8.60;;;3.85;;
49296;SDS011;35163;48.878;18.040;2023-05-07T11:55:06;7.68;;;3.80;;
49296;SDS011;35163;48.878;18.040;2023-05-07T11:57:34;11.40;;;4.88;;
49296;SDS011;35163;48.878;18.040;2023-05-07T12:00:01;6.45;;;3.85;;
49296;SDS011;35163;48.878;18.040;2023-05-07T12:02:30;8.50;;;4.22;;
49296;SDS011;35163;48.878;18.040;2023-05-07T12:04:57;10.68;;;5.43;;
49296;SDS011;35163;48.878;18.040;2023-05-07T12:10:05;8.73;;;4.32;;
49296;SDS011;35163;48.878;18.040;2023-05-07T12:12:38;13.18;;;4.88;;
49296;SDS011;35163;48.878;18.040;2023-05-07T12:15:06;10.23;;;5.78;;
49296;SDS011;35163;48.878;18.040;2023-05-07T12:17:40;11.40;;;5.88;;
49296;SDS011;35163;48.878;18.040;2023-05-07T12:20:07;11.88;;;5.40;;
49296;SDS011;35163;48.878;18.040;2023-05-07T12:22:35;9.32;;;4.93;;
49296;SDS011;35163;48.878;18.040;2023-05-07T12:25:05;12.00;;;5.57;;
49296;SDS011;35163;48.878;18.040;2023-05-07T12:27:33;12.65;;;5.95;;
49296;SDS011;35163;48.878;18.040;2023-05-07T12:30:03;11.00;;;5.22;;
49296;SDS011;35163;48.878;18.040;2023-05-07T12:32:32;10.13;;;5.80;;
49296;SDS011;35163;48.878;18.040;2023-05-07T12:35:03;8.60;;;4.90;;
49296;SDS011;35163;48.878;18.040;2023-05-07T12:37:33;9.52;;;5.10;;
49296;SDS011;35163;48.878;18.040;2023-05-07T12:40:11;11.30;;;5.68;;
49296;SDS011;35163;48.878;18.040;2023-05-07T12:42:39;11.55;;;5.00;;
49296;SDS011;35163;48.878;18.040;2023-05-07T12:45:13;9.82;;;5.32;;
49296;SDS011;35163;48.878;18.040;2023-05-07T12:47:43;9.55;;;5.90;;
49296;SDS011;35163;48.878;18.040;2023-05-07T12:50:12;10.38;;;5.40;;
49296;SDS011;35163;48.878;18.040;2023-05-07T12:52:43;10.77;;;5.93;;
49296;SDS011;35163;48.878;18.040;2023-05-07T12:55:14;11.63;;;5.70;;
49296;SDS011;35163;48.878;18.040;2023-05-07T12:57:42;10.43;;;5.75;;
49296;SDS011;35163;48.878;18.040;2023-05-07T13:00:12;9.95;;;6.10;;
49296;SDS011;35163;48.878;18.040;2023-05-07T13:02:40;10.90;;;5.82;;
49296;SDS011;35163;48.878;18.040;2023-05-07T13:05:10;9.65;;;5.72;;
49296;SDS011;35163;48.878;18.040;2023-05-07T13:07:37;12.52;;;6.18;;
49296;SDS011;35163;48.878;18.040;2023-05-07T13:10:04;10.65;;;6.07;;
49296;SDS011;35163;48.878;18.040;2023-05-07T13:12:33;10.48;;;5.72;;
49296;SDS011;35163;48.878;18.040;2023-05-07T13:15:00;10.57;;;6.50;;
49296;SDS011;35163;48.878;18.040;2023-05-07T13:17:26;11.32;;;6.22;;
49296;SDS011;35163;48.878;18.040;2023-05-07T13:19:53;11.18;;;6.50;;
49296;SDS011;35163;48.878;18.040;2023-05-07T13:22:20;11.27;;;6.38;;
49296;SDS011;35163;48.878;18.040;2023-05-07T13:24:52;11.52;;;6.90;;
49296;SDS011;35163;48.878;18.040;2023-05-07T13:27:21;12.75;;;7.10;;
49296;SDS011;35163;48.878;18.040;2023-05-07T13:29:48;10.75;;;7.00;;
49296;SDS011;35163;48.878;18.040;2023-05-07T13:32:14;12.68;;;6.47;;
49296;SDS011;35163;48.878;18.040;2023-05-07T13:34:41;10.85;;;6.72;;
49296;SDS011;35163;48.878;18.040;2023-05-07T13:37:08;12.07;;;6.72;;
49296;SDS011;35163;48.878;18.040;2023-05-07T13:39:37;10.93;;;6.10;;
49296;SDS011;35163;48.878;18.040;2023-05-07T13:42:03;10.30;;;6.60;;
49296;SDS011;35163;48.878;18.040;2023-05-07T13:44:30;11.90;;;7.20;;
49296;SDS011;35163;48.878;18.040;2023-05-07T13:46:58;10.95;;;6.63;;
49296;SDS011;35163;48.878;18.040;2023-05-07T13:49:26;11.75;;;6.68;;
49296;SDS011;35163;48.878;18.040;2023-05-07T13:51:53;11.55;;;7.10;;
49296;SDS011;35163;48.878;18.040;2023-05-07T13:54:20;13.93;;;6.65;;
49296;SDS011;35163;48.878;18.040;2023-05-07T13:56:50;12.30;;;7.10;;
49296;SDS011;35163;48.878;18.040;2023-05-07T13:59:16;11.35;;;7.03;;
49296;SDS011;35163;48.878;18.040;2023-05-07T14:01:43;12.15;;;7.80;;
49296;SDS011;35163;48.878;18.040;2023-05-07T14:04:10;11.57;;;7.45;;
49296;SDS011;35163;48.878;18.040;2023-05-07T14:06:37;13.23;;;7.70;;
49296;SDS011;35163;48.878;18.040;2023-05-07T14:09:04;14.20;;;7.07;;
49296;SDS011;35163;48.878;18.040;2023-05-07T14:11:30;11.07;;;6.60;;
49296;SDS011;35163;48.878;18.040;2023-05-07T14:14:01;10.77;;;6.60;;
49296;SDS011;35163;48.878;18.040;2023-05-07T14:16:28;15.00;;;7.35;;
49296;SDS011;35163;48.878;18.040;2023-05-07T14:18:55;14.50;;;7.45;;
49296;SDS011;35163;48.878;18.040;2023-05-07T14:21:23;15.55;;;7.55;;
49296;SDS011;35163;48.878;18.040;2023-05-07T14:23:50;11.07;;;6.28;;
49296;SDS011;35163;48.878;18.040;2023-05-07T14:26:17;15.07;;;7.70;;
49296;SDS011;35163;48.878;18.040;2023-05-07T14:28:44;10.85;;;6.03;;
49296;SDS011;35163;48.878;18.040;2023-05-07T14:31:12;11.70;;;6.97;;
49296;SDS011;35163;48.878;18.040;2023-05-07T14:33:39;13.30;;;6.32;;
49296;SDS011;35163;48.878;18.040;2023-05-07T14:36:07;14.45;;;6.25;;
49296;SDS011;35163;48.878;18.040;2023-05-07T14:38:34;13.35;;;6.47;;
49296;SDS011;35163;48.878;18.040;2023-05-07T14:41:03;10.45;;;6.18;;
49296;SDS011;35163;48.878;18.040;2023-05-07T14:43:31;9.73;;;5.82;;
49296;SDS011;35163;48.878;18.040;2023-05-07T14:46:02;10.65;;;6.20;;
49296;SDS011;35163;48.878;18.040;2023-05-07T14:48:29;11.52;;;6.68;;
49296;SDS011;35163;48.878;18.040;2023-05-07T14:50:55;12.25;;;5.47;;